sensor_id;sensor_type;location;lat;lon;timestamp;P1;durP1;ratioP1;P2;durP2;ratioP2
43682;SDS011;29285;52.128;21.060;2023-11-19T00:01:20;30.70;;;18.50;;
43682;SDS011;29285;52.128;21.060;2023-11-19T00:06:21;28.70;;;17.90;;
43682;SDS011;29285;52.128;21.060;2023-11-19T00:11:21;29.90;;;18.20;;
43682;SDS011;29285;52.128;21.060;2023-11-19T00:16:22;31.80;;;20.50;;
43682;SDS011;29285;52.128;21.060;2023-11-19T00:21:23;32.90;;;18.30;;
43682;SDS011;29285;52.128;21.060;2023-11-19T00:26:24;29.30;;;17.70;;
43682;SDS011;29285;52.128;21.060;2023-11-19T00:31:25;34.20;;;19.20;;
43682;SDS011;29285;52.128;21.060;2023-11-19T00:36:29;28.70;;;17.50;;
43682;SDS011;29285;52.128;21.060;2023-11-19T00:41:30;32.10;;;18.80;;
43682;SDS011;29285;52.128;21.060;2023-11-19T00:46:31;29.60;;;18.00;;
43682;SDS011;29285;52.128;21.060;2023-11-19T00:51:33;29.70;;;18.00;;
43682;SDS011;29285;52.128;21.060;2023-11-19T00:56:34;29.30;;;17.70;;
43682;SDS011;29285;52.128;21.060;2023-11-19T01:01:36;31.30;;;18.40;;
43682;SDS011;29285;52.128;21.060;2023-11-19T01:06:37;32.70;;;18.60;;
43682;SDS011;29285;52.128;21.060;2023-11-19T01:11:38;27.80;;;16.80;;
43682;SDS011;29285;52.128;21.060;2023-11-19T01:16:39;27.60;;;16.60;;
43682;SDS011;29285;52.128;21.060;2023-11-19T01:21:40;30.50;;;17.90;;
43682;SDS011;29285;52.128;21.060;2023-11-19T01:26:41;31.10;;;18.50;;
43682;SDS011;29285;52.128;21.060;2023-11-19T01:31:45;29.20;;;18.00;;
43682;SDS011;29285;52.128;21.060;2023-11-19T01:36:51;29.80;;;17.20;;
43682;SDS011;29285;52.128;21.060;2023-11-19T01:41:52;31.40;;;18.90;;
43682;SDS011;29285;52.128;21.060;2023-11-19T01:46:55;36.80;;;18.40;;
43682;SDS011;29285;52.128;21.060;2023-11-19T01:51:57;40.60;;;21.10;;
43682;SDS011;29285;52.128;21.060;2023-11-19T01:56:58;34.20;;;21.30;;
43682;SDS011;29285;52.128;21.060;2023-11-19T02:01:59;32.20;;;17.80;;
43682;SDS011;29285;52.128;21.060;2023-11-19T02:07:00;34.20;;;20.20;;
43682;SDS011;29285;52.128;21.060;2023-11-19T02:12:01;39.30;;;21.40;;
43682;SDS011;29285;52.128;21.060;2023-11-19T02:17:03;38.80;;;20.20;;
43682;SDS011;29285;52.128;21.060;2023-11-19T02:22:04;37.50;;;21.80;;
43682;SDS011;29285;52.128;21.060;2023-11-19T02:27:08;33.70;;;20.70;;
43682;SDS011;29285;52.128;21.060;2023-11-19T02:32:16;36.40;;;18.80;;
43682;SDS011;29285;52.128;21.060;2023-11-19T02:37:17;39.50;;;20.60;;
43682;SDS011;29285;52.128;21.060;2023-11-19T02:42:19;37.70;;;19.60;;
43682;SDS011;29285;52.128;21.060;2023-11-19T02:47:20;36.20;;;19.80;;
43682;SDS011;29285;52.128;21.060;2023-11-19T02:52:24;36.60;;;20.60;;
43682;SDS011;29285;52.128;21.060;2023-11-19T02:57:25;37.20;;;20.80;;
43682;SDS011;29285;52.128;21.060;2023-11-19T03:02:31;36.50;;;20.90;;
43682;SDS011;29285;52.128;21.060;2023-11-19T03:07:34;32.80;;;20.80;;
43682;SDS011;29285;52.128;21.060;2023-11-19T03:12:35;34.90;;;19.10;;
43682;SDS011;29285;52.128;21.060;2023-11-19T03:17:38;36.10;;;20.00;;
43682;SDS011;29285;52.128;21.060;2023-11-19T03:22:39;35.60;;;19.00;;
43682;SDS011;29285;52.128;21.060;2023-11-19T03:27:42;34.40;;;19.60;;
43682;SDS011;29285;52.128;21.060;2023-11-19T03:32:42;32.70;;;18.30;;
43682;SDS011;29285;52.128;21.060;2023-11-19T03:37:43;32.20;;;17.70;;
43682;SDS011;29285;52.128;21.060;2023-11-19T03:42:45;34.20;;;18.60;;
43682;SDS011;29285;52.128;21.060;2023-11-19T03:47:46;30.90;;;18.40;;
43682;SDS011;29285;52.128;21.060;2023-11-19T03:52:47;31.20;;;17.20;;
43682;SDS011;29285;52.128;21.060;2023-11-19T03:57:49;34.60;;;19.30;;
43682;SDS011;29285;52.128;21.060;2023-11-19T04:02:50;33.80;;;18.30;;
43682;SDS011;29285;52.128;21.060;2023-11-19T04:07:51;34.10;;;18.40;;
43682;SDS011;29285;52.128;21.060;2023-11-19T04:12:51;36.80;;;19.50;;
43682;SDS011;29285;52.128;21.060;2023-11-19T04:17:52;36.40;;;18.50;;
43682;SDS011;29285;52.128;21.060;2023-11-19T04:22:53;35.60;;;18.30;;
43682;SDS011;29285;52.128;21.060;2023-11-19T04:27:54;34.60;;;18.70;;
43682;SDS011;29285;52.128;21.060;2023-11-19T04:32:55;31.00;;;16.50;;
43682;SDS011;29285;52.128;21.060;2023-11-19T04:37:56;34.00;;;18.30;;
43682;SDS011;29285;52.128;21.060;2023-11-19T04:42:58;30.30;;;17.30;;
43682;SDS011;29285;52.128;21.060;2023-11-19T04:47:58;29.80;;;17.60;;
43682;SDS011;29285;52.128;21.060;2023-11-19T04:53:00;30.00;;;16.20;;
43682;SDS011;29285;52.128;21.060;2023-11-19T04:58:01;29.70;;;16.50;;
43682;SDS011;29285;52.128;21.060;2023-11-19T05:03:02;29.10;;;15.70;;
43682;SDS011;29285;52.128;21.060;2023-11-19T05:08:03;30.20;;;16.70;;
43682;SDS011;29285;52.128;21.060;2023-11-19T05:13:04;27.00;;;15.90;;
43682;SDS011;29285;52.128;21.060;2023-11-19T05:18:05;31.20;;;18.10;;
43682;SDS011;29285;52.128;21.060;2023-11-19T05:23:06;32.30;;;17.80;;
43682;SDS011;29285;52.128;21.060;2023-11-19T05:28:07;31.40;;;17.30;;
43682;SDS011;29285;52.128;21.060;2023-11-19T05:33:08;30.50;;;18.40;;
43682;SDS011;29285;52.128;21.060;2023-11-19T05:38:09;28.00;;;15.40;;
43682;SDS011;29285;52.128;21.060;2023-11-19T05:43:10;31.50;;;17.40;;
43682;SDS011;29285;52.128;21.060;2023-11-19T05:48:11;28.30;;;16.40;;
43682;SDS011;29285;52.128;21.060;2023-11-19T05:53:12;28.80;;;17.20;;
43682;SDS011;29285;52.128;21.060;2023-11-19T05:58:15;28.50;;;16.50;;
43682;SDS011;29285;52.128;21.060;2023-11-19T06:03:17;26.40;;;14.90;;
43682;SDS011;29285;52.128;21.060;2023-11-19T06:08:18;25.70;;;14.70;;
43682;SDS011;29285;52.128;21.060;2023-11-19T06:13:21;23.00;;;12.80;;
43682;SDS011;29285;52.128;21.060;2023-11-19T06:18:22;24.90;;;15.60;;
43682;SDS011;29285;52.128;21.060;2023-11-19T06:23:23;26.60;;;15.50;;
43682;SDS011;29285;52.128;21.060;2023-11-19T06:28:24;21.40;;;13.30;;
43682;SDS011;29285;52.128;21.060;2023-11-19T06:33:25;18.70;;;11.40;;
43682;SDS011;29285;52.128;21.060;2023-11-19T06:38:27;20.30;;;12.50;;
43682;SDS011;29285;52.128;21.060;2023-11-19T06:43:28;18.40;;;11.20;;
43682;SDS011;29285;52.128;21.060;2023-11-19T06:48:29;16.00;;;10.40;;
43682;SDS011;29285;52.128;21.060;2023-11-19T06:53:30;16.40;;;10.00;;
43682;SDS011;29285;52.128;21.060;2023-11-19T06:58:31;12.70;;;7.90;;
43682;SDS011;29285;52.128;21.060;2023-11-19T07:03:34;10.10;;;7.40;;
43682;SDS011;29285;52.128;21.060;2023-11-19T07:08:35;11.10;;;8.20;;
43682;SDS011;29285;52.128;21.060;2023-11-19T07:13:37;11.30;;;8.90;;
43682;SDS011;29285;52.128;21.060;2023-11-19T07:18:38;12.70;;;8.50;;
43682;SDS011;29285;52.128;21.060;2023-11-19T07:23:39;10.30;;;8.00;;
43682;SDS011;29285;52.128;21.060;2023-11-19T07:28:40;9.70;;;7.10;;
43682;SDS011;29285;52.128;21.060;2023-11-19T07:33:41;12.70;;;7.70;;
43682;SDS011;29285;52.128;21.060;2023-11-19T07:38:45;11.50;;;8.30;;
43682;SDS011;29285;52.128;21.060;2023-11-19T07:43:47;11.70;;;8.40;;
43682;SDS011;29285;52.128;21.060;2023-11-19T07:48:48;11.70;;;8.10;;
43682;SDS011;29285;52.128;21.060;2023-11-19T07:53:49;12.20;;;8.70;;
43682;SDS011;29285;52.128;21.060;2023-11-19T07:58:50;10.50;;;8.00;;
43682;SDS011;29285;52.128;21.060;2023-11-19T08:03:51;12.20;;;8.60;;
43682;SDS011;29285;52.128;21.060;2023-11-19T08:08:52;12.60;;;9.60;;
43682;SDS011;29285;52.128;21.060;2023-11-19T08:13:53;15.30;;;9.60;;
43682;SDS011;29285;52.128;21.060;2023-11-19T08:18:54;14.70;;;9.70;;
43682;SDS011;29285;52.128;21.060;2023-11-19T08:23:55;13.60;;;9.30;;
43682;SDS011;29285;52.128;21.060;2023-11-19T08:28:56;11.40;;;8.00;;
43682;SDS011;29285;52.128;21.060;2023-11-19T08:33:58;13.70;;;9.40;;
43682;SDS011;29285;52.128;21.060;2023-11-19T08:38:59;13.50;;;9.40;;
43682;SDS011;29285;52.128;21.060;2023-11-19T08:44:00;12.10;;;8.10;;
43682;SDS011;29285;52.128;21.060;2023-11-19T08:49:01;11.20;;;8.50;;
43682;SDS011;29285;52.128;21.060;2023-11-19T08:54:03;12.30;;;8.50;;
43682;SDS011;29285;52.128;21.060;2023-11-19T08:59:05;14.10;;;8.10;;
43682;SDS011;29285;52.128;21.060;2023-11-19T09:04:06;11.20;;;7.80;;
43682;SDS011;29285;52.128;21.060;2023-11-19T09:09:08;12.60;;;8.80;;
43682;SDS011;29285;52.128;21.060;2023-11-19T09:14:10;12.50;;;8.30;;
43682;SDS011;29285;52.128;21.060;2023-11-19T09:19:11;12.20;;;8.00;;
43682;SDS011;29285;52.128;21.060;2023-11-19T09:24:12;14.60;;;9.10;;
43682;SDS011;29285;52.128;21.060;2023-11-19T09:29:13;13.30;;;9.20;;
43682;SDS011;29285;52.128;21.060;2023-11-19T09:34:15;14.00;;;9.20;;
43682;SDS011;29285;52.128;21.060;2023-11-19T09:39:16;13.60;;;9.60;;
43682;SDS011;29285;52.128;21.060;2023-11-19T09:44:18;14.70;;;8.80;;
43682;SDS011;29285;52.128;21.060;2023-11-19T09:49:21;15.90;;;10.00;;
43682;SDS011;29285;52.128;21.060;2023-11-19T09:59:25;14.00;;;7.70;;
43682;SDS011;29285;52.128;21.060;2023-11-19T10:04:27;12.50;;;9.40;;
43682;SDS011;29285;52.128;21.060;2023-11-19T10:09:33;14.10;;;10.40;;
43682;SDS011;29285;52.128;21.060;2023-11-19T10:14:34;14.70;;;9.80;;
43682;SDS011;29285;52.128;21.060;2023-11-19T10:19:40;14.10;;;10.60;;
43682;SDS011;29285;52.128;21.060;2023-11-19T10:24:42;12.40;;;9.00;;
43682;SDS011;29285;52.128;21.060;2023-11-19T10:29:46;16.40;;;10.30;;
43682;SDS011;29285;52.128;21.060;2023-11-19T10:34:48;14.10;;;10.40;;
43682;SDS011;29285;52.128;21.060;2023-11-19T10:39:52;14.00;;;8.70;;
43682;SDS011;29285;52.128;21.060;2023-11-19T10:44:57;14.50;;;10.00;;
43682;SDS011;29285;52.128;21.060;2023-11-19T10:49:58;13.70;;;9.90;;
43682;SDS011;29285;52.128;21.060;2023-11-19T10:55:00;16.20;;;10.00;;
43682;SDS011;29285;52.128;21.060;2023-11-19T11:00:02;16.00;;;10.30;;
43682;SDS011;29285;52.128;21.060;2023-11-19T11:05:11;12.90;;;8.60;;
43682;SDS011;29285;52.128;21.060;2023-11-19T11:10:13;13.70;;;10.40;;
43682;SDS011;29285;52.128;21.060;2023-11-19T11:15:16;13.20;;;9.90;;
43682;SDS011;29285;52.128;21.060;2023-11-19T11:20:18;15.30;;;10.80;;
43682;SDS011;29285;52.128;21.060;2023-11-19T11:25:24;14.50;;;10.50;;
43682;SDS011;29285;52.128;21.060;2023-11-19T11:36:11;17.60;;;10.80;;
43682;SDS011;29285;52.128;21.060;2023-11-19T11:41:22;16.50;;;11.20;;
43682;SDS011;29285;52.128;21.060;2023-11-19T12:02:04;15.10;;;10.20;;
43682;SDS011;29285;52.128;21.060;2023-11-19T12:07:12;13.90;;;9.90;;
43682;SDS011;29285;52.128;21.060;2023-11-19T12:17:35;16.40;;;10.10;;
43682;SDS011;29285;52.128;21.060;2023-11-19T12:22:45;13.70;;;9.40;;
43682;SDS011;29285;52.128;21.060;2023-11-19T12:27:48;14.20;;;10.20;;
43682;SDS011;29285;52.128;21.060;2023-11-19T12:32:53;15.40;;;10.00;;
43682;SDS011;29285;52.128;21.060;2023-11-19T12:37:54;16.80;;;10.20;;
43682;SDS011;29285;52.128;21.060;2023-11-19T12:42:55;14.00;;;9.70;;
43682;SDS011;29285;52.128;21.060;2023-11-19T12:48:07;16.50;;;10.60;;
43682;SDS011;29285;52.128;21.060;2023-11-19T12:53:10;17.80;;;11.50;;
43682;SDS011;29285;52.128;21.060;2023-11-19T12:58:27;15.20;;;10.90;;
43682;SDS011;29285;52.128;21.060;2023-11-19T13:03:32;18.20;;;11.80;;
43682;SDS011;29285;52.128;21.060;2023-11-19T13:08:37;17.00;;;11.70;;
43682;SDS011;29285;52.128;21.060;2023-11-19T13:13:58;16.50;;;11.70;;
43682;SDS011;29285;52.128;21.060;2023-11-19T13:19:04;15.60;;;10.90;;
43682;SDS011;29285;52.128;21.060;2023-11-19T13:24:06;16.10;;;12.30;;
43682;SDS011;29285;52.128;21.060;2023-11-19T13:29:07;16.10;;;10.70;;
43682;SDS011;29285;52.128;21.060;2023-11-19T13:34:09;18.80;;;11.60;;
43682;SDS011;29285;52.128;21.060;2023-11-19T13:39:10;18.60;;;10.80;;
43682;SDS011;29285;52.128;21.060;2023-11-19T13:44:13;17.60;;;11.00;;
43682;SDS011;29285;52.128;21.060;2023-11-19T13:49:14;16.10;;;11.00;;
43682;SDS011;29285;52.128;21.060;2023-11-19T13:54:16;19.10;;;11.70;;
43682;SDS011;29285;52.128;21.060;2023-11-19T13:59:17;20.80;;;12.20;;
43682;SDS011;29285;52.128;21.060;2023-11-19T14:04:18;19.70;;;12.00;;
43682;SDS011;29285;52.128;21.060;2023-11-19T14:09:19;21.50;;;13.30;;
43682;SDS011;29285;52.128;21.060;2023-11-19T14:14:20;18.60;;;13.70;;
43682;SDS011;29285;52.128;21.060;2023-11-19T14:19:21;20.80;;;13.60;;
43682;SDS011;29285;52.128;21.060;2023-11-19T14:24:22;18.40;;;11.50;;
43682;SDS011;29285;52.128;21.060;2023-11-19T14:29:25;21.10;;;13.50;;
43682;SDS011;29285;52.128;21.060;2023-11-19T14:34:31;19.80;;;13.00;;
43682;SDS011;29285;52.128;21.060;2023-11-19T14:39:33;20.10;;;13.40;;
43682;SDS011;29285;52.128;21.060;2023-11-19T14:44:34;19.40;;;12.60;;
43682;SDS011;29285;52.128;21.060;2023-11-19T14:49:35;18.50;;;13.50;;
43682;SDS011;29285;52.128;21.060;2023-11-19T14:54:37;18.30;;;11.90;;
43682;SDS011;29285;52.128;21.060;2023-11-19T14:59:39;20.10;;;12.00;;
43682;SDS011;29285;52.128;21.060;2023-11-19T15:04:40;23.80;;;14.10;;
43682;SDS011;29285;52.128;21.060;2023-11-19T15:09:42;21.90;;;13.70;;
43682;SDS011;29285;52.128;21.060;2023-11-19T15:14:43;18.80;;;13.00;;
43682;SDS011;29285;52.128;21.060;2023-11-19T15:19:44;21.80;;;13.00;;
43682;SDS011;29285;52.128;21.060;2023-11-19T15:24:48;17.70;;;12.80;;
43682;SDS011;29285;52.128;21.060;2023-11-19T15:29:49;20.40;;;13.30;;
43682;SDS011;29285;52.128;21.060;2023-11-19T15:34:50;19.20;;;13.10;;
43682;SDS011;29285;52.128;21.060;2023-11-19T15:39:51;19.60;;;11.30;;
43682;SDS011;29285;52.128;21.060;2023-11-19T15:44:52;20.00;;;12.80;;
43682;SDS011;29285;52.128;21.060;2023-11-19T15:49:53;16.60;;;11.80;;
43682;SDS011;29285;52.128;21.060;2023-11-19T15:54:55;16.80;;;11.20;;
43682;SDS011;29285;52.128;21.060;2023-11-19T15:59:56;19.10;;;12.80;;
43682;SDS011;29285;52.128;21.060;2023-11-19T16:04:57;19.40;;;12.50;;
43682;SDS011;29285;52.128;21.060;2023-11-19T16:09:58;17.40;;;11.40;;
43682;SDS011;29285;52.128;21.060;2023-11-19T16:15:00;15.50;;;11.10;;
43682;SDS011;29285;52.128;21.060;2023-11-19T16:20:04;22.10;;;13.00;;
43682;SDS011;29285;52.128;21.060;2023-11-19T16:25:07;16.80;;;11.70;;
43682;SDS011;29285;52.128;21.060;2023-11-19T16:30:09;19.00;;;11.60;;
43682;SDS011;29285;52.128;21.060;2023-11-19T16:35:10;17.10;;;11.80;;
43682;SDS011;29285;52.128;21.060;2023-11-19T16:40:11;18.40;;;12.20;;
43682;SDS011;29285;52.128;21.060;2023-11-19T16:45:13;18.30;;;12.00;;
43682;SDS011;29285;52.128;21.060;2023-11-19T16:50:14;22.20;;;12.80;;
43682;SDS011;29285;52.128;21.060;2023-11-19T16:55:16;16.90;;;12.10;;
43682;SDS011;29285;52.128;21.060;2023-11-19T17:00:18;18.90;;;12.50;;
43682;SDS011;29285;52.128;21.060;2023-11-19T17:05:19;17.50;;;12.80;;
43682;SDS011;29285;52.128;21.060;2023-11-19T17:10:20;16.30;;;11.20;;
43682;SDS011;29285;52.128;21.060;2023-11-19T17:15:21;19.40;;;12.30;;
43682;SDS011;29285;52.128;21.060;2023-11-19T17:20:22;18.20;;;12.30;;
43682;SDS011;29285;52.128;21.060;2023-11-19T17:25:23;15.60;;;10.60;;
43682;SDS011;29285;52.128;21.060;2023-11-19T17:30:24;17.20;;;11.30;;
43682;SDS011;29285;52.128;21.060;2023-11-19T17:35:25;18.80;;;11.40;;
43682;SDS011;29285;52.128;21.060;2023-11-19T17:40:26;16.70;;;12.10;;
43682;SDS011;29285;52.128;21.060;2023-11-19T17:45:27;17.30;;;11.20;;
43682;SDS011;29285;52.128;21.060;2023-11-19T17:50:30;18.10;;;11.50;;
43682;SDS011;29285;52.128;21.060;2023-11-19T17:55:31;15.80;;;11.00;;
43682;SDS011;29285;52.128;21.060;2023-11-19T18:00:32;18.40;;;12.00;;
43682;SDS011;29285;52.128;21.060;2023-11-19T18:05:33;17.10;;;10.70;;
43682;SDS011;29285;52.128;21.060;2023-11-19T18:10:34;18.50;;;11.40;;
43682;SDS011;29285;52.128;21.060;2023-11-19T18:15:35;16.90;;;10.70;;
43682;SDS011;29285;52.128;21.060;2023-11-19T18:20:37;15.30;;;10.90;;
43682;SDS011;29285;52.128;21.060;2023-11-19T18:25:38;15.60;;;10.60;;
43682;SDS011;29285;52.128;21.060;2023-11-19T18:30:39;14.50;;;10.40;;
43682;SDS011;29285;52.128;21.060;2023-11-19T18:35:40;15.60;;;10.00;;
43682;SDS011;29285;52.128;21.060;2023-11-19T18:40:41;15.60;;;10.50;;
43682;SDS011;29285;52.128;21.060;2023-11-19T18:45:42;12.40;;;9.40;;
43682;SDS011;29285;52.128;21.060;2023-11-19T18:50:44;15.40;;;10.10;;
43682;SDS011;29285;52.128;21.060;2023-11-19T18:55:45;13.60;;;8.90;;
43682;SDS011;29285;52.128;21.060;2023-11-19T19:00:46;13.70;;;9.20;;
43682;SDS011;29285;52.128;21.060;2023-11-19T19:05:47;16.80;;;9.80;;
43682;SDS011;29285;52.128;21.060;2023-11-19T19:10:48;12.90;;;9.20;;
43682;SDS011;29285;52.128;21.060;2023-11-19T19:15:50;13.30;;;9.20;;
43682;SDS011;29285;52.128;21.060;2023-11-19T19:20:50;14.20;;;9.20;;
43682;SDS011;29285;52.128;21.060;2023-11-19T19:25:52;13.20;;;9.20;;
43682;SDS011;29285;52.128;21.060;2023-11-19T19:30:53;14.90;;;9.70;;
43682;SDS011;29285;52.128;21.060;2023-11-19T19:35:54;14.30;;;10.00;;
43682;SDS011;29285;52.128;21.060;2023-11-19T19:40:55;13.40;;;9.80;;
43682;SDS011;29285;52.128;21.060;2023-11-19T19:45:57;11.30;;;8.60;;
43682;SDS011;29285;52.128;21.060;2023-11-19T19:50:58;14.00;;;10.30;;
43682;SDS011;29285;52.128;21.060;2023-11-19T19:55:59;13.50;;;9.20;;
43682;SDS011;29285;52.128;21.060;2023-11-19T20:01:00;14.30;;;9.60;;
43682;SDS011;29285;52.128;21.060;2023-11-19T20:06:03;13.70;;;9.30;;
43682;SDS011;29285;52.128;21.060;2023-11-19T20:11:05;12.60;;;9.20;;
43682;SDS011;29285;52.128;21.060;2023-11-19T20:16:09;14.30;;;10.20;;
43682;SDS011;29285;52.128;21.060;2023-11-19T20:21:10;13.50;;;9.80;;
43682;SDS011;29285;52.128;21.060;2023-11-19T20:26:11;12.70;;;9.00;;
43682;SDS011;29285;52.128;21.060;2023-11-19T20:31:18;11.90;;;8.90;;
43682;SDS011;29285;52.128;21.060;2023-11-19T20:36:19;11.20;;;7.60;;
43682;SDS011;29285;52.128;21.060;2023-11-19T20:41:20;14.60;;;9.10;;
43682;SDS011;29285;52.128;21.060;2023-11-19T20:46:22;12.80;;;9.10;;
43682;SDS011;29285;52.128;21.060;2023-11-19T20:51:24;15.10;;;8.80;;
43682;SDS011;29285;52.128;21.060;2023-11-19T20:56:25;10.90;;;8.20;;
43682;SDS011;29285;52.128;21.060;2023-11-19T21:01:26;12.80;;;8.10;;
43682;SDS011;29285;52.128;21.060;2023-11-19T21:06:27;11.10;;;6.80;;
43682;SDS011;29285;52.128;21.060;2023-11-19T21:11:28;10.60;;;7.90;;
43682;SDS011;29285;52.128;21.060;2023-11-19T21:16:30;11.30;;;7.30;;
43682;SDS011;29285;52.128;21.060;2023-11-19T21:21:31;12.30;;;7.30;;
43682;SDS011;29285;52.128;21.060;2023-11-19T21:26:32;10.60;;;7.30;;
43682;SDS011;29285;52.128;21.060;2023-11-19T21:31:33;11.00;;;7.30;;
43682;SDS011;29285;52.128;21.060;2023-11-19T21:36:35;10.30;;;7.40;;
43682;SDS011;29285;52.128;21.060;2023-11-19T21:41:36;11.00;;;6.90;;
43682;SDS011;29285;52.128;21.060;2023-11-19T21:46:38;9.20;;;7.00;;
43682;SDS011;29285;52.128;21.060;2023-11-19T21:51:39;10.10;;;7.00;;
43682;SDS011;29285;52.128;21.060;2023-11-19T21:56:41;10.40;;;7.10;;
43682;SDS011;29285;52.128;21.060;2023-11-19T22:01:42;9.30;;;6.70;;
43682;SDS011;29285;52.128;21.060;2023-11-19T22:06:43;11.50;;;7.70;;
43682;SDS011;29285;52.128;21.060;2023-11-19T22:11:44;12.10;;;7.60;;
43682;SDS011;29285;52.128;21.060;2023-11-19T22:16:47;10.70;;;7.50;;
43682;SDS011;29285;52.128;21.060;2023-11-19T22:21:48;11.70;;;7.70;;
43682;SDS011;29285;52.128;21.060;2023-11-19T22:26:49;9.80;;;7.90;;
43682;SDS011;29285;52.128;21.060;2023-11-19T22:31:51;9.90;;;7.80;;
43682;SDS011;29285;52.128;21.060;2023-11-19T22:36:52;12.80;;;7.90;;
43682;SDS011;29285;52.128;21.060;2023-11-19T22:41:53;10.20;;;7.30;;
43682;SDS011;29285;52.128;21.060;2023-11-19T22:46:54;11.70;;;7.20;;
43682;SDS011;29285;52.128;21.060;2023-11-19T22:51:55;10.10;;;7.20;;
43682;SDS011;29285;52.128;21.060;2023-11-19T22:56:57;9.50;;;7.00;;
43682;SDS011;29285;52.128;21.060;2023-11-19T23:01:58;11.10;;;7.20;;
43682;SDS011;29285;52.128;21.060;2023-11-19T23:06:59;11.40;;;7.00;;
43682;SDS011;29285;52.128;21.060;2023-11-19T23:12:01;9.90;;;7.10;;
43682;SDS011;29285;52.128;21.060;2023-11-19T23:17:03;7.80;;;6.20;;
43682;SDS011;29285;52.128;21.060;2023-11-19T23:22:04;9.20;;;6.00;;
43682;SDS011;29285;52.128;21.060;2023-11-19T23:27:05;13.60;;;8.60;;
43682;SDS011;29285;52.128;21.060;2023-11-19T23:32:07;8.90;;;6.10;;
43682;SDS011;29285;52.128;21.060;2023-11-19T23:37:08;10.80;;;6.60;;
43682;SDS011;29285;52.128;21.060;2023-11-19T23:42:09;7.80;;;5.60;;
43682;SDS011;29285;52.128;21.060;2023-11-19T23:47:10;8.30;;;6.60;;
43682;SDS011;29285;52.128;21.060;2023-11-19T23:52:11;9.30;;;6.20;;
43682;SDS011;29285;52.128;21.060;2023-11-19T23:57:14;9.70;;;6.60;;
